»·PEaware :: DAL213 KSAN-KSBA

DAL213 :: KSAN-KSBA

FLIGHT INFORMATION

Flight Status: Arrived
Operator:
Delta Air Lines
More flights by this operator :: More flights under this callsign
Pilot: Nico L. (9332)
Aircraft: BOEING 737-800
(B738)
More flights by this aircraft type
Origin: KSAN San Diego Intl-Lindbergh
United States
Destination: KSBA Santa Barbara Mun
United States
More flights between these airports :: More routes between these airports
Route: +PEBLE6 V27 SXC V208 VTU VTU282 KWANG
File this flight plan on PilotEdge
Remarks: Live Streaming on Twitch "DAL213" and YT
Altitude:
(Current/Filed)
10,000ft
Speed:
(Current/Filed)
400kts
Departed: 31-Jan-19 10:37 AM
Arrived: 31-Jan-19 11:12 AM
Distance/Time
Traveled:
167nm/0:35
Distance/Time
To Go:
Arrived

Flight Plot

Page will automatically refresh every two minutes.

Flight plan parsing failed; only flown route is shown


Map Options




Map Legend


Flown Route
Filed Route
Departure Airport
Arrival Airport
Navaid (VOR, NDB)
Fix

Horizontal Profiles

Position Reports

Time Latitude Longitude Heading Altitude Ground
Speed
31-Jan-19 10:01 32.733703 -117.199009 149 24ft 0kts
31-Jan-19 10:02 32.733703 -117.199009 149 24ft 0kts
31-Jan-19 10:03 32.733703 -117.199009 149 24ft 0kts
31-Jan-19 10:04 32.733703 -117.199009 149 24ft 0kts
31-Jan-19 10:05 32.733703 -117.199009 149 24ft 0kts
31-Jan-19 10:06 32.733703 -117.199009 149 24ft 0kts
31-Jan-19 10:07 32.733703 -117.199009 149 24ft 0kts
31-Jan-19 10:08 32.733703 -117.199009 149 24ft 0kts
31-Jan-19 10:09 32.733703 -117.199009 149 24ft 0kts
31-Jan-19 10:10 32.733703 -117.199009 149 24ft 0kts
31-Jan-19 10:11 32.733703 -117.199009 149 24ft 0kts
31-Jan-19 10:12 32.733703 -117.199009 149 24ft 0kts
31-Jan-19 10:13 32.733703 -117.199009 149 24ft 0kts
31-Jan-19 10:14 32.733703 -117.199009 149 24ft 0kts
31-Jan-19 10:15 32.733703 -117.199009 149 24ft 0kts
31-Jan-19 10:16 32.733703 -117.199009 149 24ft 0kts
31-Jan-19 10:17 32.733703 -117.199009 149 24ft 0kts
31-Jan-19 10:18 32.733703 -117.199009 149 24ft 0kts
31-Jan-19 10:19 32.733703 -117.199009 149 24ft 0kts
31-Jan-19 10:20 32.733703 -117.199009 149 24ft 0kts
31-Jan-19 10:21 32.733703 -117.199009 149 24ft 0kts
31-Jan-19 10:22 32.733703 -117.199009 149 24ft 0kts
31-Jan-19 10:23 32.734048 -117.199465 108 24ft 2kts
31-Jan-19 10:24 32.734032 -117.200055 68 24ft 0kts
31-Jan-19 10:25 32.734032 -117.200055 68 24ft 0kts
31-Jan-19 10:26 32.734033 -117.200052 68 24ft 0kts
31-Jan-19 10:27 32.734034 -117.200049 68 24ft 0kts
31-Jan-19 10:28 32.734035 -117.200047 68 24ft 0kts
31-Jan-19 10:29 32.734611 -117.198259 106 24ft 14kts
31-Jan-19 10:30 32.733277 -117.192845 106 24ft 15kts
31-Jan-19 10:31 32.731969 -117.187480 106 24ft 24kts
31-Jan-19 10:32 32.730556 -117.181650 105 24ft 13kts
31-Jan-19 10:33 32.729700 -117.177999 106 24ft 11kts
31-Jan-19 10:34 32.729499 -117.177135 91 24ft 0kts
31-Jan-19 10:35 32.729499 -117.177131 91 24ft 0kts
31-Jan-19 10:36 32.730529 -117.177171 284 24ft 42kts
31-Jan-19 10:37 32.744904 -117.220147 311 1643ft 173kts
31-Jan-19 10:38 32.779243 -117.271457 305 3971ft 234kts
31-Jan-19 10:39 32.823165 -117.340386 304 7141ft 275kts
31-Jan-19 10:40 32.872608 -117.414781 305 9928ft 300kts
31-Jan-19 10:41 32.934461 -117.473133 330 9973ft 288kts
31-Jan-19 10:42 32.999713 -117.545247 302 9981ft 348kts
31-Jan-19 10:43 33.057000 -117.640047 302 9971ft 354kts
31-Jan-19 10:44 33.115875 -117.734905 304 9963ft 356kts
31-Jan-19 10:45 33.180210 -117.824296 329 9964ft 362kts
31-Jan-19 10:46 33.278107 -117.858123 341 10000ft 368kts
31-Jan-19 10:47 33.331416 -117.949367 273 9981ft 348kts
31-Jan-19 10:48 33.340167 -118.064151 271 9987ft 345kts
31-Jan-19 10:49 33.347816 -118.178733 271 9976ft 344kts
31-Jan-19 10:50 33.358143 -118.292687 275 9977ft 349kts
31-Jan-19 10:51 33.375266 -118.408501 288 9951ft 360kts
31-Jan-19 10:52 33.436235 -118.506033 305 9986ft 368kts
31-Jan-19 10:53 33.501620 -118.600057 306 9968ft 367kts
31-Jan-19 10:54 33.567245 -118.693937 306 9967ft 366kts
31-Jan-19 10:55 33.632456 -118.787386 306 9974ft 365kts
31-Jan-19 10:56 33.698530 -118.880154 313 10002ft 365kts
31-Jan-19 10:57 33.775661 -118.960359 316 10021ft 367kts
31-Jan-19 10:58 33.852991 -119.040051 316 9999ft 366kts
31-Jan-19 10:59 33.930166 -119.119779 316 9992ft 364kts
31-Jan-19 11:00 34.006867 -119.199209 316 9983ft 363kts
31-Jan-19 11:01 34.083678 -119.278950 316 9967ft 360kts
31-Jan-19 11:02 34.151498 -119.349476 316 9936ft 285kts
31-Jan-19 11:03 34.209929 -119.410453 317 8881ft 270kts
31-Jan-19 11:04 34.266243 -119.469245 317 7703ft 263kts
31-Jan-19 11:05 34.307346 -119.539006 300 6219ft 251kts
31-Jan-19 11:06 34.343743 -119.609092 301 4042ft 239kts
31-Jan-19 11:07 34.378200 -119.675513 301 2982ft 234kts
31-Jan-19 11:08 34.410331 -119.738222 303 1723ft 180kts
31-Jan-19 11:09 34.427520 -119.783135 279 853ft 139kts
31-Jan-19 11:10 34.428030 -119.829040 271 122ft 133kts
31-Jan-19 11:11 34.427520 -119.851367 248 19ft 15kts
31-Jan-19 11:12 34.426489 -119.850593 84 19ft 18kts
31-Jan-19 11:13 34.426563 -119.844598 87 19ft 19kts
31-Jan-19 11:14 34.426481 -119.838271 147 19ft 15kts
31-Jan-19 11:15 34.425142 -119.837293 113 19ft 0kts
31-Jan-19 11:16 34.425141 -119.837291 113 19ft 0kts
31-Jan-19 11:17 34.425141 -119.837291 113 19ft 0kts
31-Jan-19 11:18 34.425141 -119.837291 113 19ft 0kts
31-Jan-19 11:19 34.425141 -119.837291 113 19ft 0kts
31-Jan-19 11:20 34.425141 -119.837291 113 19ft 0kts
31-Jan-19 11:21 34.425141 -119.837291 113 19ft 0kts
31-Jan-19 11:22 34.425141 -119.837291 113 19ft 0kts
31-Jan-19 11:23 34.425141 -119.837291 113 19ft 0kts
31-Jan-19 11:24 34.425141 -119.837291 113 19ft 0kts
31-Jan-19 11:25 34.425141 -119.837291 113 19ft 0kts

Navigation Log

Ident Type
Flight plan parsing failed, navigation log unavailable